sensor_id;sensor_type;location;lat;lon;timestamp;pressure;altitude;pressure_sealevel;temperature;humidity
39555;BME280;25231;48.746;9.234;2022-10-16T00:00:35;96649.81;;;14.95;100.00
39555;BME280;25231;48.746;9.234;2022-10-16T00:03:02;96658.78;;;14.99;100.00
39555;BME280;25231;48.746;9.234;2022-10-16T00:05:29;96656.16;;;15.05;100.00
39555;BME280;25231;48.746;9.234;2022-10-16T00:07:54;96651.34;;;14.86;100.00
39555;BME280;25231;48.746;9.234;2022-10-16T00:10:20;96647.19;;;15.01;100.00
39555;BME280;25231;48.746;9.234;2022-10-16T00:12:46;96649.56;;;15.02;100.00
39555;BME280;25231;48.746;9.234;2022-10-16T00:15:11;96650.88;;;15.05;100.00
39555;BME280;25231;48.746;9.234;2022-10-16T00:17:37;96650.81;;;14.89;100.00
39555;BME280;25231;48.746;9.234;2022-10-16T00:20:02;96645.78;;;14.83;100.00
39555;BME280;25231;48.746;9.234;2022-10-16T00:22:28;96653.06;;;14.66;100.00
39555;BME280;25231;48.746;9.234;2022-10-16T00:24:53;96646.84;;;14.82;100.00
39555;BME280;25231;48.746;9.234;2022-10-16T00:27:19;96648.94;;;14.80;100.00
39555;BME280;25231;48.746;9.234;2022-10-16T00:29:44;96656.84;;;14.75;100.00
39555;BME280;25231;48.746;9.234;2022-10-16T00:32:09;96655.44;;;14.62;100.00
39555;BME280;25231;48.746;9.234;2022-10-16T00:34:35;96654.94;;;14.65;100.00
39555;BME280;25231;48.746;9.234;2022-10-16T00:37:00;96650.22;;;14.77;100.00
39555;BME280;25231;48.746;9.234;2022-10-16T00:39:26;96655.97;;;14.64;100.00
39555;BME280;25231;48.746;9.234;2022-10-16T00:41:51;96656.59;;;14.76;100.00
39555;BME280;25231;48.746;9.234;2022-10-16T00:47:15;96648.22;;;14.47;100.00
39555;BME280;25231;48.746;9.234;2022-10-16T00:49:42;96649.56;;;14.55;100.00
39555;BME280;25231;48.746;9.234;2022-10-16T00:52:09;96649.50;;;14.45;100.00
39555;BME280;25231;48.746;9.234;2022-10-16T00:54:35;96650.34;;;14.50;100.00
39555;BME280;25231;48.746;9.234;2022-10-16T00:57:04;96649.06;;;14.53;100.00
39555;BME280;25231;48.746;9.234;2022-10-16T00:59:35;96645.38;;;14.54;100.00
39555;BME280;25231;48.746;9.234;2022-10-16T01:02:03;96645.28;;;14.44;100.00
39555;BME280;25231;48.746;9.234;2022-10-16T01:04:32;96655.03;;;14.43;100.00
39555;BME280;25231;48.746;9.234;2022-10-16T01:12:48;96662.84;;;14.33;100.00
39555;BME280;25231;48.746;9.234;2022-10-16T01:15:42;96667.16;;;14.39;100.00
39555;BME280;25231;48.746;9.234;2022-10-16T01:18:23;96668.19;;;14.38;100.00
39555;BME280;25231;48.746;9.234;2022-10-16T01:21:03;96668.31;;;14.53;100.00
39555;BME280;25231;48.746;9.234;2022-10-16T01:26:32;96675.94;;;14.55;100.00
39555;BME280;25231;48.746;9.234;2022-10-16T01:29:13;96668.56;;;14.52;100.00
39555;BME280;25231;48.746;9.234;2022-10-16T01:31:44;96668.31;;;14.53;100.00
39555;BME280;25231;48.746;9.234;2022-10-16T01:34:16;96649.59;;;14.60;100.00
39555;BME280;25231;48.746;9.234;2022-10-16T01:36:51;96665.25;;;14.72;100.00
39555;BME280;25231;48.746;9.234;2022-10-16T01:39:21;96671.47;;;14.55;100.00
39555;BME280;25231;48.746;9.234;2022-10-16T01:44:32;96660.41;;;14.53;100.00
39555;BME280;25231;48.746;9.234;2022-10-16T01:46:59;96652.00;;;14.62;100.00
39555;BME280;25231;48.746;9.234;2022-10-16T01:49:29;96648.09;;;14.69;100.00
39555;BME280;25231;48.746;9.234;2022-10-16T01:51:59;96650.16;;;14.62;100.00
39555;BME280;25231;48.746;9.234;2022-10-16T01:54:27;96650.91;;;14.57;100.00
39555;BME280;25231;48.746;9.234;2022-10-16T01:56:56;96650.88;;;14.47;100.00
39555;BME280;25231;48.746;9.234;2022-10-16T01:59:25;96644.84;;;14.57;100.00
39555;BME280;25231;48.746;9.234;2022-10-16T02:01:56;96644.13;;;14.72;100.00
39555;BME280;25231;48.746;9.234;2022-10-16T02:04:28;96648.06;;;14.64;100.00
39555;BME280;25231;48.746;9.234;2022-10-16T02:06:55;96645.69;;;14.68;100.00
39555;BME280;25231;48.746;9.234;2022-10-16T02:09:21;96638.06;;;14.71;100.00
39555;BME280;25231;48.746;9.234;2022-10-16T02:11:46;96641.75;;;14.65;100.00
39555;BME280;25231;48.746;9.234;2022-10-16T02:14:14;96646.78;;;14.72;100.00
39555;BME280;25231;48.746;9.234;2022-10-16T02:16:45;96647.88;;;14.81;100.00
39555;BME280;25231;48.746;9.234;2022-10-16T02:19:12;96653.94;;;14.76;100.00
39555;BME280;25231;48.746;9.234;2022-10-16T02:21:57;96658.41;;;14.76;100.00
39555;BME280;25231;48.746;9.234;2022-10-16T02:24:47;96656.22;;;14.63;100.00
39555;BME280;25231;48.746;9.234;2022-10-16T02:27:31;96663.13;;;14.69;100.00
39555;BME280;25231;48.746;9.234;2022-10-16T02:33:00;96656.28;;;14.73;100.00
39555;BME280;25231;48.746;9.234;2022-10-16T02:35:28;96653.97;;;14.81;100.00
39555;BME280;25231;48.746;9.234;2022-10-16T02:37:55;96650.78;;;14.79;100.00
39555;BME280;25231;48.746;9.234;2022-10-16T02:40:22;96641.81;;;14.80;100.00
39555;BME280;25231;48.746;9.234;2022-10-16T02:42:51;96637.25;;;14.66;100.00
39555;BME280;25231;48.746;9.234;2022-10-16T02:45:17;96636.94;;;14.57;100.00
39555;BME280;25231;48.746;9.234;2022-10-16T02:47:42;96647.72;;;14.50;100.00
39555;BME280;25231;48.746;9.234;2022-10-16T02:50:08;96645.94;;;14.66;100.00
39555;BME280;25231;48.746;9.234;2022-10-16T02:52:33;96649.59;;;14.60;100.00
39555;BME280;25231;48.746;9.234;2022-10-16T02:54:59;96647.47;;;14.52;100.00
39555;BME280;25231;48.746;9.234;2022-10-16T02:57:24;96651.53;;;14.70;100.00
39555;BME280;25231;48.746;9.234;2022-10-16T02:59:49;96658.34;;;14.66;100.00
39555;BME280;25231;48.746;9.234;2022-10-16T03:02:15;96670.75;;;14.65;100.00
39555;BME280;25231;48.746;9.234;2022-10-16T03:04:40;96663.38;;;14.67;100.00
39555;BME280;25231;48.746;9.234;2022-10-16T03:07:06;96662.56;;;14.67;100.00
39555;BME280;25231;48.746;9.234;2022-10-16T03:09:31;96662.56;;;14.67;100.00
39555;BME280;25231;48.746;9.234;2022-10-16T03:11:57;96669.19;;;14.69;100.00
39555;BME280;25231;48.746;9.234;2022-10-16T03:14:22;96664.66;;;14.60;100.00
39555;BME280;25231;48.746;9.234;2022-10-16T03:16:47;96662.31;;;14.68;100.00
39555;BME280;25231;48.746;9.234;2022-10-16T03:19:13;96662.88;;;14.70;100.00
39555;BME280;25231;48.746;9.234;2022-10-16T03:21:38;96658.59;;;14.59;100.00
39555;BME280;25231;48.746;9.234;2022-10-16T03:24:04;96661.31;;;14.74;100.00
39555;BME280;25231;48.746;9.234;2022-10-16T03:26:29;96661.72;;;14.56;100.00
39555;BME280;25231;48.746;9.234;2022-10-16T03:28:55;96663.69;;;14.71;100.00
39555;BME280;25231;48.746;9.234;2022-10-16T03:31:20;96666.00;;;14.67;100.00
39555;BME280;25231;48.746;9.234;2022-10-16T03:33:45;96667.53;;;14.58;100.00
39555;BME280;25231;48.746;9.234;2022-10-16T03:36:11;96659.13;;;14.61;100.00
39555;BME280;25231;48.746;9.234;2022-10-16T03:38:36;96659.69;;;14.68;100.00
39555;BME280;25231;48.746;9.234;2022-10-16T03:41:02;96655.19;;;14.64;100.00
39555;BME280;25231;48.746;9.234;2022-10-16T03:43:27;96663.00;;;14.48;100.00
39555;BME280;25231;48.746;9.234;2022-10-16T03:45:53;96667.47;;;14.48;100.00
39555;BME280;25231;48.746;9.234;2022-10-16T03:48:19;96660.41;;;14.53;100.00
39555;BME280;25231;48.746;9.234;2022-10-16T03:50:44;96663.00;;;14.48;100.00
39555;BME280;25231;48.746;9.234;2022-10-16T03:53:11;96657.75;;;14.53;100.00
39555;BME280;25231;48.746;9.234;2022-10-16T03:55:37;96669.53;;;14.41;100.00
39555;BME280;25231;48.746;9.234;2022-10-16T03:58:02;96672.47;;;14.49;100.00
39555;BME280;25231;48.746;9.234;2022-10-16T04:00:28;96679.91;;;14.52;100.00
39555;BME280;25231;48.746;9.234;2022-10-16T04:02:54;96672.47;;;14.49;100.00
39555;BME280;25231;48.746;9.234;2022-10-16T04:05:19;96666.72;;;14.52;100.00
39555;BME280;25231;48.746;9.234;2022-10-16T04:07:45;96669.06;;;14.49;100.00
39555;BME280;25231;48.746;9.234;2022-10-16T04:10:10;96665.91;;;14.52;100.00
39555;BME280;25231;48.746;9.234;2022-10-16T04:12:36;96666.16;;;14.50;100.00
39555;BME280;25231;48.746;9.234;2022-10-16T04:15:01;96672.25;;;14.51;100.00
39555;BME280;25231;48.746;9.234;2022-10-16T04:17:27;96673.09;;;14.62;100.00
39555;BME280;25231;48.746;9.234;2022-10-16T04:19:52;96678.72;;;14.75;100.00
39555;BME280;25231;48.746;9.234;2022-10-16T04:22:17;96673.06;;;14.56;100.00
39555;BME280;25231;48.746;9.234;2022-10-16T04:24:43;96679.69;;;14.59;100.00
39555;BME280;25231;48.746;9.234;2022-10-16T04:27:08;96671.81;;;14.64;100.00
39555;BME280;25231;48.746;9.234;2022-10-16T04:29:34;96680.81;;;14.73;100.00
39555;BME280;25231;48.746;9.234;2022-10-16T04:31:59;96667.56;;;14.63;100.00
39555;BME280;25231;48.746;9.234;2022-10-16T04:34:25;96666.56;;;14.69;100.00
39555;BME280;25231;48.746;9.234;2022-10-16T04:36:50;96672.63;;;14.70;100.00
39555;BME280;25231;48.746;9.234;2022-10-16T04:39:16;96677.91;;;14.70;100.00
39555;BME280;25231;48.746;9.234;2022-10-16T04:41:42;96677.13;;;14.69;100.00
39555;BME280;25231;48.746;9.234;2022-10-16T04:44:08;96672.91;;;14.73;100.00
39555;BME280;25231;48.746;9.234;2022-10-16T04:46:33;96678.41;;;14.67;100.00
39555;BME280;25231;48.746;9.234;2022-10-16T04:48:58;96683.69;;;14.67;100.00
39555;BME280;25231;48.746;9.234;2022-10-16T04:51:24;96687.91;;;14.68;100.00
39555;BME280;25231;48.746;9.234;2022-10-16T04:53:51;96687.59;;;14.59;100.00
39555;BME280;25231;48.746;9.234;2022-10-16T04:56:16;96692.56;;;14.55;100.00
39555;BME280;25231;48.746;9.234;2022-10-16T04:58:42;96692.38;;;14.67;100.00
39555;BME280;25231;48.746;9.234;2022-10-16T05:01:08;96697.19;;;14.70;100.00
39555;BME280;25231;48.746;9.234;2022-10-16T05:03:33;96703.25;;;14.71;100.00
39555;BME280;25231;48.746;9.234;2022-10-16T05:05:59;96705.34;;;14.69;100.00
39555;BME280;25231;48.746;9.234;2022-10-16T05:08:24;96706.97;;;14.75;100.00
39555;BME280;25231;48.746;9.234;2022-10-16T05:10:49;96710.13;;;14.77;100.00
39555;BME280;25231;48.746;9.234;2022-10-16T05:13:15;96705.38;;;14.79;100.00
39555;BME280;25231;48.746;9.234;2022-10-16T05:15:40;96709.63;;;14.80;100.00
39555;BME280;25231;48.746;9.234;2022-10-16T05:18:06;96715.97;;;14.84;100.00
39555;BME280;25231;48.746;9.234;2022-10-16T05:20:32;96709.94;;;14.88;100.00
39555;BME280;25231;48.746;9.234;2022-10-16T05:22:57;96703.81;;;14.83;100.00
39555;BME280;25231;48.746;9.234;2022-10-16T05:25:23;96711.69;;;14.73;100.00
39555;BME280;25231;48.746;9.234;2022-10-16T05:27:49;96708.28;;;14.77;100.00
39555;BME280;25231;48.746;9.234;2022-10-16T05:30:16;96698.72;;;14.66;100.00
39555;BME280;25231;48.746;9.234;2022-10-16T05:32:41;96701.88;;;14.63;100.00
39555;BME280;25231;48.746;9.234;2022-10-16T05:35:07;96696.81;;;14.56;100.00
39555;BME280;25231;48.746;9.234;2022-10-16T05:37:32;96708.13;;;14.52;100.00
39555;BME280;25231;48.746;9.234;2022-10-16T05:39:58;96708.34;;;14.45;100.00
39555;BME280;25231;48.746;9.234;2022-10-16T05:42:23;96707.31;;;14.51;100.00
39555;BME280;25231;48.746;9.234;2022-10-16T05:44:49;96710.41;;;14.43;100.00
39555;BME280;25231;48.746;9.234;2022-10-16T05:47:14;96713.88;;;14.49;100.00
39555;BME280;25231;48.746;9.234;2022-10-16T05:49:40;96719.41;;;14.42;100.00
39555;BME280;25231;48.746;9.234;2022-10-16T05:52:05;96723.69;;;14.53;100.00
39555;BME280;25231;48.746;9.234;2022-10-16T05:54:31;96716.00;;;14.47;100.00
39555;BME280;25231;48.746;9.234;2022-10-16T05:56:57;96723.16;;;14.51;100.00
39555;BME280;25231;48.746;9.234;2022-10-16T05:59:22;96716.63;;;14.59;100.00
39555;BME280;25231;48.746;9.234;2022-10-16T06:01:47;96732.09;;;14.50;100.00
39555;BME280;25231;48.746;9.234;2022-10-16T06:04:13;96728.28;;;14.68;100.00
39555;BME280;25231;48.746;9.234;2022-10-16T06:06:38;96735.38;;;14.63;100.00
39555;BME280;25231;48.746;9.234;2022-10-16T06:09:04;96733.84;;;14.72;100.00
39555;BME280;25231;48.746;9.234;2022-10-16T06:11:32;96741.84;;;14.82;100.00
39555;BME280;25231;48.746;9.234;2022-10-16T06:13:59;96741.28;;;14.80;100.00
39555;BME280;25231;48.746;9.234;2022-10-16T06:16:27;96742.75;;;14.66;100.00
39555;BME280;25231;48.746;9.234;2022-10-16T06:18:54;96742.84;;;14.76;100.00
39555;BME280;25231;48.746;9.234;2022-10-16T06:21:24;96743.31;;;14.68;100.00
39555;BME280;25231;48.746;9.234;2022-10-16T06:23:50;96757.56;;;15.09;100.00
39555;BME280;25231;48.746;9.234;2022-10-16T06:26:19;96755.47;;;15.16;100.00
39555;BME280;25231;48.746;9.234;2022-10-16T06:28:45;96759.38;;;15.03;100.00
39555;BME280;25231;48.746;9.234;2022-10-16T06:31:11;96760.47;;;15.07;100.00
39555;BME280;25231;48.746;9.234;2022-10-16T06:33:38;96758.81;;;14.96;100.00
39555;BME280;25231;48.746;9.234;2022-10-16T06:36:14;96765.53;;;15.14;100.00
39555;BME280;25231;48.746;9.234;2022-10-16T06:38:41;96751.53;;;15.18;100.00
39555;BME280;25231;48.746;9.234;2022-10-16T06:41:07;96752.38;;;15.24;100.00
39555;BME280;25231;48.746;9.234;2022-10-16T06:43:34;96757.47;;;15.46;100.00
39555;BME280;25231;48.746;9.234;2022-10-16T06:46:04;96765.50;;;15.61;100.00
39555;BME280;25231;48.746;9.234;2022-10-16T06:48:30;96770.81;;;15.66;100.00
39555;BME280;25231;48.746;9.234;2022-10-16T06:51:09;96778.00;;;15.75;100.00
39555;BME280;25231;48.746;9.234;2022-10-16T06:53:37;96778.50;;;15.77;100.00
39555;BME280;25231;48.746;9.234;2022-10-16T06:56:23;96781.47;;;15.96;100.00
39555;BME280;25231;48.746;9.234;2022-10-16T06:58:50;96787.00;;;15.95;100.00
39555;BME280;25231;48.746;9.234;2022-10-16T07:01:17;96783.84;;;15.93;100.00
39555;BME280;25231;48.746;9.234;2022-10-16T07:03:44;96786.72;;;15.76;100.00
39555;BME280;25231;48.746;9.234;2022-10-16T07:06:12;96789.13;;;15.83;100.00
39555;BME280;25231;48.746;9.234;2022-10-16T07:08:40;96789.97;;;15.98;100.00
39555;BME280;25231;48.746;9.234;2022-10-16T07:11:08;96791.56;;;16.04;100.00
39555;BME280;25231;48.746;9.234;2022-10-16T07:13:40;96799.50;;;16.04;100.00
39555;BME280;25231;48.746;9.234;2022-10-16T07:18:32;96800.31;;;16.20;100.00
39555;BME280;25231;48.746;9.234;2022-10-16T07:23:30;96822.75;;;16.12;100.00
39555;BME280;25231;48.746;9.234;2022-10-16T07:25:55;96828.59;;;16.09;100.00
39555;BME280;25231;48.746;9.234;2022-10-16T07:28:21;96822.25;;;16.15;100.00
39555;BME280;25231;48.746;9.234;2022-10-16T07:30:47;96835.97;;;16.07;100.00
39555;BME280;25231;48.746;9.234;2022-10-16T07:33:12;96840.22;;;16.13;100.00
39555;BME280;25231;48.746;9.234;2022-10-16T07:35:48;96847.78;;;16.87;100.00
39555;BME280;25231;48.746;9.234;2022-10-16T07:38:13;96835.84;;;17.00;100.00
39555;BME280;25231;48.746;9.234;2022-10-16T07:40:38;96850.41;;;16.72;100.00
39555;BME280;25231;48.746;9.234;2022-10-16T07:43:04;96851.94;;;16.43;100.00
39555;BME280;25231;48.746;9.234;2022-10-16T07:45:30;96854.53;;;16.22;100.00
39555;BME280;25231;48.746;9.234;2022-10-16T07:47:55;96849.81;;;16.40;100.00
39555;BME280;25231;48.746;9.234;2022-10-16T07:50:21;96851.16;;;16.42;100.00
39555;BME280;25231;48.746;9.234;2022-10-16T07:52:46;96851.41;;;16.46;100.00
39555;BME280;25231;48.746;9.234;2022-10-16T07:55:12;96852.47;;;16.50;100.00
39555;BME280;25231;48.746;9.234;2022-10-16T07:57:37;96857.25;;;16.43;100.00
39555;BME280;25231;48.746;9.234;2022-10-16T08:00:03;96865.19;;;16.48;100.00
39555;BME280;25231;48.746;9.234;2022-10-16T08:02:28;96872.59;;;16.56;100.00
39555;BME280;25231;48.746;9.234;2022-10-16T08:04:54;96866.22;;;16.47;100.00
39555;BME280;25231;48.746;9.234;2022-10-16T08:07:19;96865.78;;;16.60;100.00
39555;BME280;25231;48.746;9.234;2022-10-16T08:09:49;96870.25;;;16.59;100.00
39555;BME280;25231;48.746;9.234;2022-10-16T08:12:15;96869.72;;;16.68;100.00
39555;BME280;25231;48.746;9.234;2022-10-16T08:14:40;96869.22;;;16.91;100.00
39555;BME280;25231;48.746;9.234;2022-10-16T08:17:05;96870.03;;;17.07;100.00
39555;BME280;25231;48.746;9.234;2022-10-16T08:19:31;96874.00;;;17.09;100.00
39555;BME280;25231;48.746;9.234;2022-10-16T08:21:56;96860.75;;;17.14;100.00
39555;BME280;25231;48.746;9.234;2022-10-16T08:24:22;96867.09;;;17.18;100.00
39555;BME280;25231;48.746;9.234;2022-10-16T08:26:47;96866.56;;;17.26;100.00
39555;BME280;25231;48.746;9.234;2022-10-16T08:29:14;96873.97;;;17.50;100.00
39555;BME280;25231;48.746;9.234;2022-10-16T08:31:39;96877.66;;;17.64;100.00
39555;BME280;25231;48.746;9.234;2022-10-16T08:34:05;96876.59;;;17.65;100.00
39555;BME280;25231;48.746;9.234;2022-10-16T08:36:30;96883.69;;;17.84;100.00
39555;BME280;25231;48.746;9.234;2022-10-16T08:38:56;96882.34;;;17.97;100.00
39555;BME280;25231;48.746;9.234;2022-10-16T08:49:36;96899.59;;;17.90;100.00
39555;BME280;25231;48.746;9.234;2022-10-16T08:52:03;96896.72;;;17.81;100.00
39555;BME280;25231;48.746;9.234;2022-10-16T08:54:29;96896.97;;;17.79;100.00
39555;BME280;25231;48.746;9.234;2022-10-16T08:56:57;96891.09;;;17.98;100.00
39555;BME280;25231;48.746;9.234;2022-10-16T08:59:26;96894.84;;;17.86;100.00
39555;BME280;25231;48.746;9.234;2022-10-16T09:01:52;96901.75;;;17.72;100.00
39555;BME280;25231;48.746;9.234;2022-10-16T09:10:20;96913.81;;;18.24;100.00
39555;BME280;25231;48.746;9.234;2022-10-16T09:13:23;96908.97;;;18.36;100.00
39555;BME280;25231;48.746;9.234;2022-10-16T09:16:01;96913.66;;;18.59;99.55
39555;BME280;25231;48.746;9.234;2022-10-16T09:18:40;96910.66;;;18.76;97.52
39555;BME280;25231;48.746;9.234;2022-10-16T09:23:39;96902.13;;;18.79;95.56
39555;BME280;25231;48.746;9.234;2022-10-16T09:26:05;96911.94;;;18.79;95.99
39555;BME280;25231;48.746;9.234;2022-10-16T09:28:34;96913.06;;;18.67;95.99
39555;BME280;25231;48.746;9.234;2022-10-16T09:30:59;96921.38;;;18.61;96.09
39555;BME280;25231;48.746;9.234;2022-10-16T09:33:29;96925.38;;;18.48;97.09
39555;BME280;25231;48.746;9.234;2022-10-16T09:35:58;96925.13;;;18.55;95.87
39555;BME280;25231;48.746;9.234;2022-10-16T09:38:32;96926.16;;;18.49;97.30
39555;BME280;25231;48.746;9.234;2022-10-16T09:41:00;96929.56;;;18.64;96.71
39555;BME280;25231;48.746;9.234;2022-10-16T09:43:36;96935.00;;;18.88;94.15
39555;BME280;25231;48.746;9.234;2022-10-16T09:46:19;96924.84;;;18.95;94.17
39555;BME280;25231;48.746;9.234;2022-10-16T09:48:50;96929.03;;;19.06;93.24
39555;BME280;25231;48.746;9.234;2022-10-16T09:51:24;96931.06;;;19.20;93.40
39555;BME280;25231;48.746;9.234;2022-10-16T09:53:56;96932.59;;;19.26;91.43
39555;BME280;25231;48.746;9.234;2022-10-16T09:56:25;96932.19;;;19.42;91.35
39555;BME280;25231;48.746;9.234;2022-10-16T09:58:56;96933.78;;;19.48;90.77
39555;BME280;25231;48.746;9.234;2022-10-16T10:01:26;96928.19;;;19.50;90.68
39555;BME280;25231;48.746;9.234;2022-10-16T10:03:57;96926.56;;;19.54;91.67
39555;BME280;25231;48.746;9.234;2022-10-16T10:06:37;96937.94;;;19.60;90.48
39555;BME280;25231;48.746;9.234;2022-10-16T10:09:22;96936.50;;;19.72;89.55
39555;BME280;25231;48.746;9.234;2022-10-16T10:11:56;96937.69;;;19.85;88.55
39555;BME280;25231;48.746;9.234;2022-10-16T10:16:52;96940.75;;;19.97;88.61
39555;BME280;25231;48.746;9.234;2022-10-16T10:19:22;96943.28;;;20.07;87.26
39555;BME280;25231;48.746;9.234;2022-10-16T10:21:50;96939.03;;;20.06;87.68
39555;BME280;25231;48.746;9.234;2022-10-16T10:24:18;96949.53;;;20.21;85.97
39555;BME280;25231;48.746;9.234;2022-10-16T10:27:09;96949.34;;;20.13;84.32
39555;BME280;25231;48.746;9.234;2022-10-16T10:29:50;96945.56;;;20.19;83.60
39555;BME280;25231;48.746;9.234;2022-10-16T10:32:26;96946.09;;;20.21;83.21
39555;BME280;25231;48.746;9.234;2022-10-16T10:40:13;96939.91;;;20.25;82.19
39555;BME280;25231;48.746;9.234;2022-10-16T10:43:01;96947.19;;;20.44;79.05
39555;BME280;25231;48.746;9.234;2022-10-16T10:45:43;96951.84;;;20.52;78.65
39555;BME280;25231;48.746;9.234;2022-10-16T10:50:57;96953.56;;;20.43;76.80
39555;BME280;25231;48.746;9.234;2022-10-16T11:02:04;96957.88;;;20.39;79.47
39555;BME280;25231;48.746;9.234;2022-10-16T11:07:29;96948.38;;;20.51;76.70
39555;BME280;25231;48.746;9.234;2022-10-16T11:10:13;96959.16;;;20.65;74.68
39555;BME280;25231;48.746;9.234;2022-10-16T11:12:44;96950.00;;;20.71;74.07
39555;BME280;25231;48.746;9.234;2022-10-16T11:15:27;96943.63;;;20.72;74.31
39555;BME280;25231;48.746;9.234;2022-10-16T11:18:01;96945.94;;;20.79;72.12
39555;BME280;25231;48.746;9.234;2022-10-16T11:20:37;96948.66;;;20.92;73.38
39555;BME280;25231;48.746;9.234;2022-10-16T11:25:50;96941.38;;;20.98;73.72
39555;BME280;25231;48.746;9.234;2022-10-16T11:31:10;96946.50;;;20.94;72.65
39555;BME280;25231;48.746;9.234;2022-10-16T11:37:14;96947.84;;;20.92;72.82
39555;BME280;25231;48.746;9.234;2022-10-16T11:39:35;96955.69;;;21.02;72.58
39555;BME280;25231;48.746;9.234;2022-10-16T11:42:23;96943.31;;;21.30;72.11
39555;BME280;25231;48.746;9.234;2022-10-16T11:45:23;96941.31;;;21.54;72.43
39555;BME280;25231;48.746;9.234;2022-10-16T11:48:00;96940.81;;;21.52;70.05
39555;BME280;25231;48.746;9.234;2022-10-16T11:53:38;96945.50;;;21.74;67.80
39555;BME280;25231;48.746;9.234;2022-10-16T11:56:07;96940.97;;;21.74;67.23
39555;BME280;25231;48.746;9.234;2022-10-16T11:59:01;96936.03;;;21.81;66.79
39555;BME280;25231;48.746;9.234;2022-10-16T12:07:05;96918.47;;;21.94;65.52
39555;BME280;25231;48.746;9.234;2022-10-16T12:09:35;96915.00;;;21.93;65.25
39555;BME280;25231;48.746;9.234;2022-10-16T12:12:02;96919.97;;;22.00;65.19
39555;BME280;25231;48.746;9.234;2022-10-16T12:14:40;96922.75;;;22.09;63.88
39555;BME280;25231;48.746;9.234;2022-10-16T12:17:25;96920.38;;;22.21;64.07
39555;BME280;25231;48.746;9.234;2022-10-16T12:20:22;96921.16;;;22.08;64.13
39555;BME280;25231;48.746;9.234;2022-10-16T12:22:51;96921.75;;;22.05;64.42
39555;BME280;25231;48.746;9.234;2022-10-16T12:25:37;96920.44;;;22.29;62.82
39555;BME280;25231;48.746;9.234;2022-10-16T12:28:22;96924.59;;;22.49;64.03
39555;BME280;25231;48.746;9.234;2022-10-16T12:31:02;96925.00;;;22.56;63.69
39555;BME280;25231;48.746;9.234;2022-10-16T12:33:33;96920.84;;;22.36;62.62
39555;BME280;25231;48.746;9.234;2022-10-16T12:36:01;96929.72;;;22.59;63.29
39555;BME280;25231;48.746;9.234;2022-10-16T12:38:47;96928.53;;;22.65;63.02
39555;BME280;25231;48.746;9.234;2022-10-16T12:41:24;96931.19;;;22.65;62.54
39555;BME280;25231;48.746;9.234;2022-10-16T12:43:50;96930.59;;;22.68;61.56
39555;BME280;25231;48.746;9.234;2022-10-16T12:48:43;96933.31;;;22.55;62.89
39555;BME280;25231;48.746;9.234;2022-10-16T12:51:32;96928.88;;;22.50;63.07
39555;BME280;25231;48.746;9.234;2022-10-16T12:59:48;96928.66;;;22.19;64.29
39555;BME280;25231;48.746;9.234;2022-10-16T13:05:26;96936.69;;;22.06;65.54
39555;BME280;25231;48.746;9.234;2022-10-16T13:11:20;96950.63;;;21.56;69.72
39555;BME280;25231;48.746;9.234;2022-10-16T13:25:02;96944.50;;;21.70;67.46
39555;BME280;25231;48.746;9.234;2022-10-16T13:27:54;96948.25;;;21.69;66.46
39555;BME280;25231;48.746;9.234;2022-10-16T13:30:25;96952.53;;;21.70;66.52
39555;BME280;25231;48.746;9.234;2022-10-16T13:33:07;96950.53;;;21.62;66.95
39555;BME280;25231;48.746;9.234;2022-10-16T13:35:37;96949.97;;;21.78;66.28
39555;BME280;25231;48.746;9.234;2022-10-16T13:38:09;96959.94;;;21.73;66.37
39555;BME280;25231;48.746;9.234;2022-10-16T13:40:36;96957.00;;;21.88;65.68
39555;BME280;25231;48.746;9.234;2022-10-16T13:43:02;96957.19;;;21.91;65.82
39555;BME280;25231;48.746;9.234;2022-10-16T13:45:27;96948.75;;;22.17;65.92
39555;BME280;25231;48.746;9.234;2022-10-16T13:48:09;96951.97;;;21.86;67.31
39555;BME280;25231;48.746;9.234;2022-10-16T13:50:37;96951.22;;;22.13;67.70
39555;BME280;25231;48.746;9.234;2022-10-16T13:53:07;96962.81;;;21.76;67.86
39555;BME280;25231;48.746;9.234;2022-10-16T13:55:38;96957.47;;;21.76;67.83
39555;BME280;25231;48.746;9.234;2022-10-16T13:58:14;96956.69;;;21.76;68.53
39555;BME280;25231;48.746;9.234;2022-10-16T14:00:41;96950.94;;;21.69;69.26
39555;BME280;25231;48.746;9.234;2022-10-16T14:03:19;96942.53;;;21.62;69.58
39555;BME280;25231;48.746;9.234;2022-10-16T14:05:51;96950.31;;;21.58;70.14
39555;BME280;25231;48.746;9.234;2022-10-16T14:08:17;96951.03;;;21.31;71.14
39555;BME280;25231;48.746;9.234;2022-10-16T14:10:47;96949.69;;;21.47;70.81
39555;BME280;25231;48.746;9.234;2022-10-16T14:13:17;96954.59;;;21.40;71.89
39555;BME280;25231;48.746;9.234;2022-10-16T14:15:47;96947.56;;;21.31;72.20
39555;BME280;25231;48.746;9.234;2022-10-16T14:18:21;96946.78;;;21.30;72.61
39555;BME280;25231;48.746;9.234;2022-10-16T14:20:48;96946.16;;;21.52;71.90
39555;BME280;25231;48.746;9.234;2022-10-16T14:23:29;96952.19;;;21.57;70.89
39555;BME280;25231;48.746;9.234;2022-10-16T14:26:17;96947.38;;;21.60;69.50
39555;BME280;25231;48.746;9.234;2022-10-16T14:28:45;96954.81;;;21.44;72.11
39555;BME280;25231;48.746;9.234;2022-10-16T14:31:32;96967.38;;;21.43;69.79
39555;BME280;25231;48.746;9.234;2022-10-16T14:33:58;96957.41;;;21.49;71.09
39555;BME280;25231;48.746;9.234;2022-10-16T14:36:26;96957.91;;;21.51;71.23
39555;BME280;25231;48.746;9.234;2022-10-16T14:39:04;96956.16;;;21.28;72.97
39555;BME280;25231;48.746;9.234;2022-10-16T14:41:44;96955.44;;;21.54;72.88
39555;BME280;25231;48.746;9.234;2022-10-16T14:44:11;96962.19;;;21.33;72.82
39555;BME280;25231;48.746;9.234;2022-10-16T14:46:38;96959.00;;;21.50;71.51
39555;BME280;25231;48.746;9.234;2022-10-16T14:51:40;96956.78;;;21.71;69.47